Latest Weather Observations for Mount Isa

IDQ60801

Issued at 1:02 pm EST Tuesday 28 February 2017 (issued every 30 minutes, with the page automatically refreshed every 10 minutes)

About weather observations | Map of weather stations | Latest weather observations for QLD | Other Formats
Station Details ID: 029127 Name: MOUNT ISA AERO Lat: -20.68 Lon: 139.49 Height: 340.3 m
Data from the previous 72 hours. | See also: Recent months at Mount Isa
Date/Time
EST
Temp
°C
App
Temp
°C
Dew
Point
°C
Rel
Hum
%
Delta-T
°C
Wind Press
QNH
hPa
Press
MSL
hPa
Rain since
9am
mm
Dir  Spd
km/h
Gust
km/h
Spd
kts
Gust
kts
28/01:00pm 35.2 34.4 15.0 30 12.8 NE 13 20 7 11 1010.9 1008.4 0.0
28/12:30pm 34.8 34.6 17.5 35 11.3 NNE 15 22 8 12 1011.4 1008.9 0.0
28/12:00pm 34.5 35.2 18.9 39 10.4 NE 13 28 7 15 1012.0 1009.4 0.0
28/11:30am 34.1 34.9 19.0 41 10.0 NNE 13 20 7 11 1012.3 1009.7 0.0
28/11:00am 33.0 33.7 18.0 41 9.8 NNE 11 22 6 12 1012.5 1009.9 0.0
28/10:30am 31.9 33.4 18.1 43 9.0 WNW 7 9 4 5 1012.7 1010.1 0.0
28/10:00am 29.5 31.0 18.0 50 7.4 SE 7 13 4 7 1013.0 1010.4 0.0
28/09:30am 28.2 31.2 19.2 58 5.9 NE 2 11 1 6 1013.3 1010.7 0.0
28/09:00am 26.9 29.9 19.3 63 5.0 ENE 2 6 1 3 1013.0 1010.4 0.0
28/08:30am 24.9 28.2 19.9 74 3.3 WSW 2 7 1 4 1012.6 1010.0 0.0
28/08:00am 24.4 26.9 19.9 76 2.9 N 6 7 3 4 1012.5 1009.9 0.0
28/07:30am 23.6 27.4 20.1 81 2.3 CALM 0 0 0 0 1012.2 1009.6 0.0
28/07:00am 22.8 24.8 18.8 78 2.6 W 6 7 3 4 1011.8 1009.2 0.0
28/06:30am 23.8 25.6 18.7 73 3.3 SSW 7 9 4 5 1011.7 1009.1 0.0
28/06:00am 24.5 25.8 18.4 69 3.9 SSW 9 11 5 6 1011.6 1009.0 0.0
28/05:30am 24.5 26.4 18.9 71 3.6 SSW 7 9 4 5 1011.4 1008.9 0.0
28/05:00am 23.2 25.2 20.0 82 2.1 WSW 9 15 5 8 1011.2 1008.7 0.0
28/04:30am 21.9 23.9 19.1 84 1.8 WSW 7 9 4 5 1010.7 1008.2 0.0
28/04:00am 21.7 24.8 18.7 83 1.9 CALM 0 0 0 0 1010.7 1008.2 0.0
28/03:30am 21.8 24.8 18.4 81 2.2 CALM 0 0 0 0 1010.5 1007.9 0.0
28/03:00am 22.5 25.5 18.5 78 2.6 CALM 0 0 0 0 1010.6 1008.0 0.0
28/02:30am 23.0 26.1 18.7 77 2.8 CALM 0 0 0 0 1010.7 1008.2 0.0
28/02:00am 23.3 25.1 18.4 74 3.1 NW 6 7 3 4 1010.9 1008.4 0.0
28/01:30am 23.3 24.1 18.2 73 3.2 WNW 11 13 6 7 1011.2 1008.7 0.0
28/01:00am 24.1 25.8 18.5 71 3.6 WSW 7 9 4 5 1011.8 1009.2 0.0
28/12:30am 24.9 27.9 18.4 67 4.2 CALM 0 0 0 0 1012.1 1009.5 0.0
28/12:00am 25.7 28.5 18.9 66 4.4 WSW 2 7 1 4 1012.3 1009.7 0.0
 
Date/Time
EST
Temp
°C
App
Temp
°C
Dew
Point
°C
Rel
Hum
%
Delta-T
°C
Wind Press
QNH
hPa
Press
MSL
hPa
Rain since
9am
mm
Dir  Spd
km/h
Gust
km/h
Spd
kts
Gust
kts
27/11:30pm 26.3 27.8 18.9 63 4.8 NNE 9 13 5 7 1012.4 1009.8 0.0
27/11:00pm 26.9 27.7 18.2 59 5.6 NNE 11 15 6 8 1012.4 1009.8 0.0
27/10:30pm 27.8 28.4 17.6 53 6.5 NE 11 17 6 9 1012.1 1009.5 0.0
27/10:00pm 27.8 27.6 17.6 53 6.5 N 15 19 8 10 1011.6 1009.0 0.0
27/09:30pm 28.0 28.6 17.8 54 6.5 WNW 11 13 6 7 1012.0 1009.4 0.0
27/09:00pm 28.5 29.5 17.7 52 6.9 NW 9 13 5 7 1012.4 1009.8 0.0
27/08:30pm 29.0 28.2 17.2 49 7.5 NE 17 22 9 12 1011.4 1008.9 0.0
27/08:00pm 29.8 30.1 16.9 45 8.2 NNE 11 17 6 9 1011.2 1008.7 0.0
27/07:30pm 30.3 29.3 16.7 44 8.7 NNE 17 22 9 12 1010.8 1008.3 0.0
27/07:00pm 31.3 28.2 15.7 39 9.8 NNE 26 33 14 18 1010.4 1007.8 0.0
27/06:30pm 34.6 33.6 14.5 30 12.6 NNE 13 17 7 9 1009.7 1007.1 0.0
27/06:00pm 34.8 33.8 14.7 30 12.6 NE 13 17 7 9 1009.2 1006.6 0.0
27/05:30pm 34.2 32.6 16.1 34 11.6 E 19 24 10 13 1009.2 1006.6 0.0
27/05:00pm 34.5 32.1 14.4 30 12.6 ESE 20 35 11 19 1009.0 1006.4 0.0
27/04:30pm 34.9 34.5 14.2 28 12.9 SE 9 15 5 8 1009.2 1006.6 0.0
27/04:00pm 33.6 33.2 15.1 33 11.6 E 11 13 6 7 1009.3 1006.7 0.0
27/03:30pm 31.3 29.0 15.7 39 9.8 ESE 22 30 12 16 1009.8 1007.2 0.0
27/03:00pm 35.8 35.0 13.9 27 13.7 SE 11 19 6 10 1009.8 1007.2 0.0
27/02:30pm 36.6 36.6 15.1 27 13.7 E 9 15 5 8 1010.0 1007.4 0.0
27/02:00pm 36.4 35.5 13.8 26 14.1 E 11 17 6 9 1010.5 1007.9 0.0
27/01:30pm 36.7 35.5 14.1 26 14.2 N 13 20 7 11 1010.9 1008.4 0.0
27/01:00pm 35.5 34.9 13.6 26 13.6 NNE 9 15 5 8 1011.6 1009.0 0.0
27/12:30pm 34.9 33.6 13.7 28 13.1 NNE 13 19 7 10 1012.1 1009.5 0.0
27/12:00pm 34.7 34.1 13.5 28 13.1 ENE 9 20 5 11 1012.5 1009.9 0.0
27/11:30am 34.9 34.9 16.2 32 12.0 NNW 11 19 6 10 1012.9 1010.3 0.0
27/11:00am 33.9 34.1 15.8 33 11.5 N 9 13 5 7 1013.0 1010.4 0.0
27/10:30am 32.8 32.5 14.4 33 11.4 NNE 9 13 5 7 1013.3 1010.7 0.0
27/10:00am 32.1 32.5 16.4 39 10.0 ENE 9 11 5 6 1013.2 1010.6 0.0
27/09:30am 31.3 32.4 16.5 41 9.4 N 6 9 3 5 1013.1 1010.5 0.0
27/09:00am 29.9 30.7 17.4 47 8.0 NNE 9 11 5 6 1013.1 1010.5 0.0
27/08:30am 28.1 29.2 16.7 50 7.2 NE 6 7 3 4 1013.0 1010.4 0.0
27/08:00am 26.9 28.5 16.8 54 6.4 SE 4 7 2 4 1012.7 1010.1 0.0
27/07:30am 25.8 27.6 18.2 63 4.9 E 6 7 3 4 1012.3 1009.7 0.0
27/07:00am 24.5 25.0 17.5 65 4.4 SW 11 13 6 7 1012.1 1009.5 0.0
27/06:30am 26.3 27.1 17.4 58 5.6 WSW 9 9 5 5 1012.1 1009.5 0.0
27/06:00am 26.5 26.7 17.6 58 5.7 SW 13 20 7 11 1012.1 1009.5 0.0
27/05:30am 27.1 28.2 18.1 58 5.8 S 9 13 5 7 1011.8 1009.2 0.0
27/05:00am 27.3 28.0 18.9 60 5.5 SSW 13 15 7 8 1011.4 1008.9 0.0
27/04:30am 24.7 27.1 20.0 75 3.1 S 7 9 4 5 1011.3 1008.8 0.0
27/04:00am 24.3 26.3 20.0 77 2.8 SW 9 11 5 6 1011.0 1008.5 0.0
27/03:30am 24.4 28.1 19.9 76 2.9 CALM 0 0 0 0 1010.6 1008.0 0.0
27/03:00am 24.4 27.9 19.5 74 3.2 CALM 0 0 0 0 1010.7 1008.2 0.0
27/02:30am 23.9 25.5 19.2 75 3.0 W 9 15 5 8 1010.8 1008.3 0.0
27/02:00am 24.1 27.4 19.2 74 3.2 CALM 0 0 0 0 1010.8 1008.3 0.0
27/01:30am 25.1 28.7 19.7 72 3.5 CALM 0 0 0 0 1010.9 1008.4 0.0
27/01:00am 26.0 29.2 18.9 65 4.6 CALM 0 0 0 0 1011.1 1008.6 0.0
27/12:30am 27.1 29.2 18.9 61 5.3 WSW 6 9 3 5 1011.2 1008.7 0.0
27/12:00am 27.2 28.5 18.5 59 5.6 NE 9 11 5 6 1011.4 1008.9 0.0
 
Date/Time
EST
Temp
°C
App
Temp
°C
Dew
Point
°C
Rel
Hum
%
Delta-T
°C
Wind Press
QNH
hPa
Press
MSL
hPa
Rain since
9am
mm
Dir  Spd
km/h
Gust
km/h
Spd
kts
Gust
kts
26/11:30pm 27.3 28.3 18.6 59 5.6 E 11 11 6 6 1011.4 1008.9 0.0
26/11:00pm 26.9 28.3 18.7 60 5.3 ENE 9 11 5 6 1011.4 1008.9 0.0
26/10:30pm 28.2 29.2 18.6 56 6.2 E 11 13 6 7 1011.7 1009.1 0.0
26/10:00pm 28.6 29.9 18.4 54 6.6 ENE 9 13 5 7 1011.8 1009.2 0.0
26/09:30pm 29.6 29.9 17.1 47 8.0 NE 11 13 6 7 1011.2 1008.7 0.0
26/09:00pm 30.3 31.3 17.7 46 8.1 NNE 9 11 5 6 1010.8 1008.3 0.0
26/08:30pm 31.4 31.4 16.2 40 9.6 NNE 11 13 6 7 1010.4 1007.8 0.0
26/08:00pm 31.7 31.1 15.6 37 10.1 NE 13 17 7 9 1010.0 1007.4 0.0
26/07:30pm 32.8 31.9 14.9 34 11.2 NE 13 19 7 10 1009.3 1006.7 0.0
26/07:00pm 33.7 32.0 14.7 32 11.9 NE 17 26 9 14 1009.1 1006.5 0.0
26/06:30pm 34.9 32.5 13.7 28 13.1 ENE 19 26 10 14 1008.8 1006.2 0.0
26/06:00pm 36.0 33.9 13.5 26 14.0 NE 17 22 9 12 1008.3 1005.8 0.0
26/05:30pm 36.4 33.8 13.2 25 14.3 ENE 19 28 10 15 1008.4 1005.9 0.0
26/05:00pm 37.0 34.0 13.7 25 14.6 E 22 30 12 16 1008.3 1005.8 0.0
26/04:30pm 37.0 34.4 13.7 25 14.5 ENE 20 30 11 16 1008.4 1005.9 0.0
26/04:00pm 36.7 33.4 11.5 22 15.2 E 20 32 11 17 1008.6 1006.0 0.0
26/03:30pm 37.6 35.3 14.2 25 14.7 ENE 19 33 10 18 1008.6 1006.0 0.0
26/03:00pm 37.1 33.9 13.2 24 14.8 ENE 22 32 12 17 1009.0 1006.4 0.0
26/02:30pm 37.4 35.0 12.8 23 15.2 E 17 33 9 18 1009.3 1006.7 0.0
26/02:00pm 37.7 35.4 13.0 23 15.3 SE 17 28 9 15 1009.5 1006.9 0.0
26/01:30pm 36.8 33.7 12.3 23 15.0 SE 20 33 11 18 1009.9 1007.3 0.0
26/01:00pm 37.1 35.8 12.5 23 15.1 ESE 11 26 6 14 1010.2 1007.6 0.0
26/12:30pm 36.1 34.6 13.0 25 14.2 NE 13 19 7 10 1010.6 1008.0 0.0
26/12:00pm 35.5 35.3 13.6 26 13.6 NE 7 13 4 7 1010.9 1008.4 0.0
26/11:30am 36.2 36.6 16.4 31 12.8 NNE 9 15 5 8 1011.2 1008.7 0.0
26/11:00am 34.5 34.4 14.9 31 12.3 SW 9 15 5 8 1011.7 1009.1 0.0
26/10:30am 34.3 34.5 14.7 30 12.3 ESE 7 13 4 7 1012.0 1009.4 0.0
26/10:00am 33.5 34.8 18.4 40 9.9 WNW 9 13 5 7 1012.1 1009.5 0.0
26/09:30am 32.1 33.2 19.7 48 8.3 WSW 13 19 7 10 1012.0 1009.4 0.0
26/09:00am 31.0 32.8 20.3 53 7.2 WSW 11 15 6 8 1012.0 1009.4 0.2
26/08:30am 29.6 33.1 19.6 55 6.6 CALM 0 0 0 0 1012.1 1009.5 0.2
26/08:00am 28.2 31.5 20.0 61 5.4 SSW 2 6 1 3 1012.0 1009.4 0.2
26/07:30am 24.9 29.2 21.2 80 2.5 CALM 0 6 0 3 1011.9 1009.3 0.2
26/07:00am 22.9 25.5 20.1 84 1.8 WNW 6 9 3 5 1011.3 1008.8 0.2
26/06:30am 22.8 25.2 19.6 82 2.1 ESE 6 7 3 4 1011.2 1008.7 0.2
26/06:00am 23.6 25.8 19.3 77 2.8 SSW 6 11 3 6 1011.0 1008.5 0.2
26/05:30am 23.9 25.4 22.0 89 1.3 SSW 17 19 9 10 1011.2 1008.7 0.2
26/05:00am 21.1 23.6 20.3 95 0.5 N 7 9 4 5 1010.4 1007.8 0.2
26/04:30am 20.8 23.9 19.6 93 0.8 N 2 9 1 5 1010.0 1007.4 0.2
26/04:00am 21.2 24.8 19.8 92 0.9 CALM 0 0 0 0 1009.8 1007.2 0.2
26/03:30am 21.5 24.8 19.2 87 1.5 CALM 0 0 0 0 1009.7 1007.1 0.2
26/03:00am 21.9 25.4 19.5 86 1.6 CALM 0 0 0 0 1009.8 1007.2 0.2
26/02:30am 22.1 25.4 19.1 83 1.9 CALM 0 0 0 0 1009.9 1007.3 0.2
26/02:00am 22.7 26.4 19.9 84 1.8 CALM 0 0 0 0 1010.0 1007.4 0.2
26/01:30am 22.9 26.6 19.9 83 2.0 CALM 0 0 0 0 1010.2 1007.6 0.2
26/01:00am 23.4 27.2 20.2 82 2.1 CALM 0 0 0 0 1010.4 1007.8 0.2
26/12:30am 23.5 27.0 19.6 79 2.5 CALM 0 0 0 0 1010.7 1008.2 0.2
26/12:00am 24.1 27.6 19.6 76 2.9 CALM 0 0 0 0 1010.9 1008.4 0.2
 
Date/Time
EST
Temp
°C
App
Temp
°C
Dew
Point
°C
Rel
Hum
%
Delta-T
°C
Wind Press
QNH
hPa
Press
MSL
hPa
Rain since
9am
mm
Dir  Spd
km/h
Gust
km/h
Spd
kts
Gust
kts
25/11:30pm 24.7 28.5 20.2 76 3.0 CALM 0 0 0 0 1011.0 1008.5 0.2
25/11:00pm 25.2 28.5 19.1 69 4.0 CALM 0 0 0 0 1011.2 1008.7 0.2
25/10:30pm 25.6 29.1 19.5 69 4.0 CALM 0 0 0 0 1011.2 1008.7 0.2
25/10:00pm 25.9 29.1 18.8 65 4.6 CALM 0 0 0 0 1011.1 1008.6 0.2
25/09:30pm 27.0 28.4 17.8 57 5.9 N 7 7 4 4 1010.7 1008.2 0.2
25/09:00pm 27.6 28.1 16.6 51 6.9 NNW 9 11 5 6 1010.4 1007.8 0.2
25/08:30pm 27.9 29.3 17.7 53 6.5 NNW 7 7 4 4 1010.1 1007.5 0.2
25/08:00pm 29.3 29.8 16.5 46 8.1 ENE 9 11 5 6 1009.8 1007.2 0.2
25/07:30pm 31.4 31.3 15.0 37 10.2 ENE 9 13 5 7 1009.5 1006.9 0.2
25/07:00pm 33.6 33.0 13.6 29 12.3 ENE 9 13 5 7 1009.3 1006.7 0.2
25/06:30pm 34.9 32.6 13.1 27 13.4 ESE 17 26 9 14 1009.2 1006.6 0.2
25/06:00pm 35.6 34.5 13.1 25 13.9 ENE 11 17 6 9 1009.2 1006.6 0.2
25/05:30pm 36.3 34.4 13.1 25 14.3 E 15 24 8 13 1009.3 1006.7 0.2
25/05:00pm 36.5 34.1 12.7 24 14.6 NE 17 28 9 15 1009.3 1006.7 0.2
25/04:30pm 36.7 34.9 12.2 23 14.9 E 13 19 7 10 1009.5 1006.9 0.2
25/04:00pm 36.2 34.1 12.4 24 14.5 E 15 30 8 16 1009.7 1007.1 0.2
25/03:30pm 36.6 34.1 13.4 25 14.4 SE 19 28 10 15 1009.9 1007.3 0.2
25/03:00pm 37.0 34.2 14.3 26 14.3 E 22 35 12 19 1010.3 1007.7 0.2
25/02:30pm 36.8 34.1 12.9 24 14.7 E 19 33 10 18 1010.6 1008.0 0.2
25/02:00pm 36.1 33.6 13.6 26 14.0 ESE 19 28 10 15 1011.1 1008.6 0.2
25/01:30pm 36.3 33.7 13.7 25 14.1 ENE 20 30 11 16 1011.3 1008.8 0.2

Other Formats:

Comma delimited format used in spreadsheet applications
http://www.bom.gov.au/fwo/IDQ60801/IDQ60801.94332.axf

JavaScript Object Notation format (JSON) in row-major order
http://www.bom.gov.au/fwo/IDQ60801/IDQ60801.94332.json